sensor_id;sensor_type;location;lat;lon;timestamp;P1;durP1;ratioP1;P2;durP2;ratioP2
23449;SDS011;11897;45.438;12.128;2023-04-29T00:01:18;11.67;;;7.27;;
23449;SDS011;11897;45.438;12.128;2023-04-29T00:03:45;14.43;;;7.67;;
23449;SDS011;11897;45.438;12.128;2023-04-29T00:06:11;10.83;;;6.90;;
23449;SDS011;11897;45.438;12.128;2023-04-29T00:08:38;13.43;;;7.03;;
23449;SDS011;11897;45.438;12.128;2023-04-29T00:11:05;12.00;;;6.90;;
23449;SDS011;11897;45.438;12.128;2023-04-29T00:13:31;14.57;;;7.27;;
23449;SDS011;11897;45.438;12.128;2023-04-29T00:15:58;14.87;;;7.87;;
23449;SDS011;11897;45.438;12.128;2023-04-29T00:18:26;12.30;;;7.73;;
23449;SDS011;11897;45.438;12.128;2023-04-29T00:20:53;13.53;;;8.23;;
23449;SDS011;11897;45.438;12.128;2023-04-29T00:23:19;9.97;;;6.67;;
23449;SDS011;11897;45.438;12.128;2023-04-29T00:25:46;11.57;;;7.13;;
23449;SDS011;11897;45.438;12.128;2023-04-29T00:28:13;12.93;;;6.77;;
23449;SDS011;11897;45.438;12.128;2023-04-29T00:30:39;11.67;;;6.80;;
23449;SDS011;11897;45.438;12.128;2023-04-29T00:33:06;11.13;;;7.50;;
23449;SDS011;11897;45.438;12.128;2023-04-29T00:35:35;9.10;;;6.37;;
23449;SDS011;11897;45.438;12.128;2023-04-29T00:38:02;12.47;;;6.40;;
23449;SDS011;11897;45.438;12.128;2023-04-29T00:40:28;13.73;;;7.00;;
23449;SDS011;11897;45.438;12.128;2023-04-29T00:42:55;12.13;;;7.53;;
23449;SDS011;11897;45.438;12.128;2023-04-29T00:45:22;12.63;;;7.20;;
23449;SDS011;11897;45.438;12.128;2023-04-29T00:47:49;13.63;;;7.13;;
23449;SDS011;11897;45.438;12.128;2023-04-29T00:50:16;10.87;;;6.53;;
23449;SDS011;11897;45.438;12.128;2023-04-29T00:52:45;14.27;;;7.80;;
23449;SDS011;11897;45.438;12.128;2023-04-29T00:55:13;12.03;;;6.80;;
23449;SDS011;11897;45.438;12.128;2023-04-29T00:57:48;15.33;;;6.77;;
23449;SDS011;11897;45.438;12.128;2023-04-29T01:00:17;15.57;;;7.27;;
23449;SDS011;11897;45.438;12.128;2023-04-29T01:02:45;12.37;;;7.20;;
23449;SDS011;11897;45.438;12.128;2023-04-29T01:05:13;16.03;;;7.53;;
23449;SDS011;11897;45.438;12.128;2023-04-29T01:07:43;10.43;;;6.33;;
23449;SDS011;11897;45.438;12.128;2023-04-29T01:10:17;14.53;;;6.77;;
23449;SDS011;11897;45.438;12.128;2023-04-29T01:12:49;11.30;;;7.07;;
23449;SDS011;11897;45.438;12.128;2023-04-29T01:15:22;12.63;;;7.33;;
23449;SDS011;11897;45.438;12.128;2023-04-29T01:17:54;12.73;;;7.30;;
23449;SDS011;11897;45.438;12.128;2023-04-29T01:20:23;12.47;;;6.40;;
23449;SDS011;11897;45.438;12.128;2023-04-29T01:22:51;12.17;;;6.60;;
23449;SDS011;11897;45.438;12.128;2023-04-29T01:25:19;13.73;;;6.57;;
23449;SDS011;11897;45.438;12.128;2023-04-29T01:28:19;13.63;;;6.90;;
23449;SDS011;11897;45.438;12.128;2023-04-29T01:30:49;11.70;;;6.23;;
23449;SDS011;11897;45.438;12.128;2023-04-29T01:33:21;12.87;;;6.33;;
23449;SDS011;11897;45.438;12.128;2023-04-29T01:35:52;11.40;;;6.20;;
23449;SDS011;11897;45.438;12.128;2023-04-29T01:38:22;11.43;;;5.53;;
23449;SDS011;11897;45.438;12.128;2023-04-29T01:41:01;12.13;;;6.60;;
23449;SDS011;11897;45.438;12.128;2023-04-29T01:43:31;11.37;;;6.23;;
23449;SDS011;11897;45.438;12.128;2023-04-29T01:46:08;10.57;;;5.53;;
23449;SDS011;11897;45.438;12.128;2023-04-29T01:48:36;12.93;;;6.33;;
23449;SDS011;11897;45.438;12.128;2023-04-29T01:51:02;10.77;;;5.77;;
23449;SDS011;11897;45.438;12.128;2023-04-29T01:53:30;13.13;;;5.50;;
23449;SDS011;11897;45.438;12.128;2023-04-29T01:55:59;13.93;;;5.80;;
23449;SDS011;11897;45.438;12.128;2023-04-29T01:58:30;13.07;;;6.43;;
23449;SDS011;11897;45.438;12.128;2023-04-29T02:01:04;9.73;;;5.60;;
23449;SDS011;11897;45.438;12.128;2023-04-29T02:03:33;11.97;;;5.70;;
23449;SDS011;11897;45.438;12.128;2023-04-29T02:06:01;13.80;;;6.23;;
23449;SDS011;11897;45.438;12.128;2023-04-29T02:08:29;11.47;;;6.27;;
23449;SDS011;11897;45.438;12.128;2023-04-29T02:10:57;9.30;;;5.60;;
23449;SDS011;11897;45.438;12.128;2023-04-29T02:13:38;15.77;;;6.40;;
23449;SDS011;11897;45.438;12.128;2023-04-29T02:16:08;10.17;;;5.70;;
23449;SDS011;11897;45.438;12.128;2023-04-29T02:18:38;15.10;;;5.53;;
23449;SDS011;11897;45.438;12.128;2023-04-29T02:21:05;9.93;;;5.60;;
23449;SDS011;11897;45.438;12.128;2023-04-29T02:23:35;12.57;;;6.40;;
23449;SDS011;11897;45.438;12.128;2023-04-29T02:26:03;9.37;;;5.27;;
23449;SDS011;11897;45.438;12.128;2023-04-29T02:28:32;12.03;;;6.33;;
23449;SDS011;11897;45.438;12.128;2023-04-29T02:31:04;11.50;;;6.50;;
23449;SDS011;11897;45.438;12.128;2023-04-29T02:33:31;11.33;;;6.47;;
23449;SDS011;11897;45.438;12.128;2023-04-29T02:35:57;13.20;;;7.13;;
23449;SDS011;11897;45.438;12.128;2023-04-29T02:38:25;14.57;;;5.83;;
23449;SDS011;11897;45.438;12.128;2023-04-29T02:40:53;11.50;;;5.90;;
23449;SDS011;11897;45.438;12.128;2023-04-29T02:43:20;10.13;;;5.57;;
23449;SDS011;11897;45.438;12.128;2023-04-29T02:45:47;13.73;;;6.43;;
23449;SDS011;11897;45.438;12.128;2023-04-29T02:48:16;10.57;;;5.90;;
23449;SDS011;11897;45.438;12.128;2023-04-29T02:50:42;9.33;;;5.43;;
23449;SDS011;11897;45.438;12.128;2023-04-29T02:53:09;12.53;;;6.00;;
23449;SDS011;11897;45.438;12.128;2023-04-29T02:55:36;13.27;;;6.23;;
23449;SDS011;11897;45.438;12.128;2023-04-29T02:58:07;11.77;;;6.70;;
23449;SDS011;11897;45.438;12.128;2023-04-29T03:00:34;18.80;;;6.50;;
23449;SDS011;11897;45.438;12.128;2023-04-29T03:03:00;11.50;;;5.87;;
23449;SDS011;11897;45.438;12.128;2023-04-29T03:05:30;16.03;;;5.77;;
23449;SDS011;11897;45.438;12.128;2023-04-29T03:07:57;12.03;;;5.53;;
23449;SDS011;11897;45.438;12.128;2023-04-29T03:10:24;10.97;;;6.10;;
23449;SDS011;11897;45.438;12.128;2023-04-29T03:12:50;10.73;;;6.30;;
23449;SDS011;11897;45.438;12.128;2023-04-29T03:15:17;10.30;;;5.70;;
23449;SDS011;11897;45.438;12.128;2023-04-29T03:17:45;11.77;;;6.27;;
23449;SDS011;11897;45.438;12.128;2023-04-29T03:20:12;9.40;;;6.20;;
23449;SDS011;11897;45.438;12.128;2023-04-29T03:22:40;11.87;;;6.17;;
23449;SDS011;11897;45.438;12.128;2023-04-29T03:25:08;11.47;;;5.80;;
23449;SDS011;11897;45.438;12.128;2023-04-29T03:27:37;12.10;;;6.80;;
23449;SDS011;11897;45.438;12.128;2023-04-29T03:30:04;8.93;;;6.30;;
23449;SDS011;11897;45.438;12.128;2023-04-29T03:32:31;13.93;;;6.60;;
23449;SDS011;11897;45.438;12.128;2023-04-29T03:34:59;10.23;;;5.67;;
23449;SDS011;11897;45.438;12.128;2023-04-29T03:37:40;9.43;;;5.57;;
23449;SDS011;11897;45.438;12.128;2023-04-29T03:40:21;13.17;;;6.10;;
23449;SDS011;11897;45.438;12.128;2023-04-29T03:42:49;11.00;;;5.60;;
23449;SDS011;11897;45.438;12.128;2023-04-29T03:45:16;12.17;;;6.73;;
23449;SDS011;11897;45.438;12.128;2023-04-29T03:47:43;11.30;;;5.97;;
23449;SDS011;11897;45.438;12.128;2023-04-29T03:50:10;9.77;;;5.50;;
23449;SDS011;11897;45.438;12.128;2023-04-29T03:52:38;11.40;;;6.30;;
23449;SDS011;11897;45.438;12.128;2023-04-29T03:55:12;8.83;;;4.80;;
23449;SDS011;11897;45.438;12.128;2023-04-29T03:57:39;11.77;;;5.90;;
23449;SDS011;11897;45.438;12.128;2023-04-29T04:00:07;11.93;;;6.20;;
23449;SDS011;11897;45.438;12.128;2023-04-29T04:02:45;10.90;;;5.73;;
23449;SDS011;11897;45.438;12.128;2023-04-29T04:05:13;13.73;;;6.47;;
23449;SDS011;11897;45.438;12.128;2023-04-29T04:07:46;12.47;;;6.50;;
23449;SDS011;11897;45.438;12.128;2023-04-29T04:10:39;11.87;;;6.37;;
23449;SDS011;11897;45.438;12.128;2023-04-29T04:13:24;11.97;;;5.97;;
23449;SDS011;11897;45.438;12.128;2023-04-29T04:15:52;10.83;;;5.67;;
23449;SDS011;11897;45.438;12.128;2023-04-29T04:18:18;11.60;;;6.57;;
23449;SDS011;11897;45.438;12.128;2023-04-29T04:20:45;10.17;;;4.77;;
23449;SDS011;11897;45.438;12.128;2023-04-29T04:23:12;11.53;;;6.27;;
23449;SDS011;11897;45.438;12.128;2023-04-29T04:25:45;11.37;;;5.50;;
23449;SDS011;11897;45.438;12.128;2023-04-29T04:28:33;12.43;;;6.10;;
23449;SDS011;11897;45.438;12.128;2023-04-29T04:31:10;9.77;;;5.50;;
23449;SDS011;11897;45.438;12.128;2023-04-29T04:33:39;11.97;;;6.03;;
23449;SDS011;11897;45.438;12.128;2023-04-29T04:36:07;10.47;;;6.63;;
23449;SDS011;11897;45.438;12.128;2023-04-29T04:38:34;20.90;;;6.30;;
23449;SDS011;11897;45.438;12.128;2023-04-29T04:41:11;9.73;;;5.73;;
23449;SDS011;11897;45.438;12.128;2023-04-29T04:43:42;10.87;;;5.57;;
23449;SDS011;11897;45.438;12.128;2023-04-29T04:46:32;10.23;;;6.20;;
23449;SDS011;11897;45.438;12.128;2023-04-29T04:49:13;12.43;;;5.97;;
23449;SDS011;11897;45.438;12.128;2023-04-29T04:51:47;12.03;;;6.53;;
23449;SDS011;11897;45.438;12.128;2023-04-29T04:54:20;8.70;;;5.00;;
23449;SDS011;11897;45.438;12.128;2023-04-29T04:56:55;10.67;;;6.17;;
23449;SDS011;11897;45.438;12.128;2023-04-29T04:59:26;14.23;;;7.33;;
23449;SDS011;11897;45.438;12.128;2023-04-29T05:01:54;13.13;;;6.33;;
23449;SDS011;11897;45.438;12.128;2023-04-29T05:04:46;13.67;;;5.53;;
23449;SDS011;11897;45.438;12.128;2023-04-29T05:07:18;10.00;;;6.70;;
23449;SDS011;11897;45.438;12.128;2023-04-29T05:09:58;9.37;;;5.50;;
23449;SDS011;11897;45.438;12.128;2023-04-29T05:12:27;8.60;;;5.47;;
23449;SDS011;11897;45.438;12.128;2023-04-29T05:14:55;10.27;;;5.63;;
23449;SDS011;11897;45.438;12.128;2023-04-29T05:17:24;8.97;;;4.97;;
23449;SDS011;11897;45.438;12.128;2023-04-29T05:19:51;7.90;;;5.33;;
23449;SDS011;11897;45.438;12.128;2023-04-29T05:22:18;7.50;;;4.93;;
23449;SDS011;11897;45.438;12.128;2023-04-29T05:24:45;9.87;;;5.23;;
23449;SDS011;11897;45.438;12.128;2023-04-29T05:27:12;7.43;;;4.87;;
23449;SDS011;11897;45.438;12.128;2023-04-29T05:29:41;7.97;;;4.63;;
23449;SDS011;11897;45.438;12.128;2023-04-29T05:32:08;10.03;;;4.73;;
23449;SDS011;11897;45.438;12.128;2023-04-29T05:34:35;8.17;;;5.10;;
23449;SDS011;11897;45.438;12.128;2023-04-29T05:37:02;10.23;;;5.53;;
23449;SDS011;11897;45.438;12.128;2023-04-29T05:39:31;9.53;;;5.03;;
23449;SDS011;11897;45.438;12.128;2023-04-29T05:42:11;8.10;;;4.53;;
23449;SDS011;11897;45.438;12.128;2023-04-29T05:44:45;6.53;;;4.20;;
23449;SDS011;11897;45.438;12.128;2023-04-29T05:47:11;8.23;;;4.83;;
23449;SDS011;11897;45.438;12.128;2023-04-29T05:49:38;10.07;;;5.13;;
23449;SDS011;11897;45.438;12.128;2023-04-29T05:52:05;7.50;;;4.07;;
23449;SDS011;11897;45.438;12.128;2023-04-29T05:54:38;6.00;;;4.23;;
23449;SDS011;11897;45.438;12.128;2023-04-29T05:57:05;8.33;;;4.87;;
23449;SDS011;11897;45.438;12.128;2023-04-29T05:59:32;11.63;;;4.73;;
23449;SDS011;11897;45.438;12.128;2023-04-29T06:02:08;10.90;;;5.03;;
23449;SDS011;11897;45.438;12.128;2023-04-29T06:04:38;12.83;;;5.00;;
23449;SDS011;11897;45.438;12.128;2023-04-29T06:07:18;7.73;;;5.10;;
23449;SDS011;11897;45.438;12.128;2023-04-29T06:09:58;8.67;;;4.23;;
23449;SDS011;11897;45.438;12.128;2023-04-29T06:12:26;6.73;;;4.17;;
23449;SDS011;11897;45.438;12.128;2023-04-29T06:14:52;7.53;;;5.00;;
23449;SDS011;11897;45.438;12.128;2023-04-29T06:17:21;10.97;;;5.73;;
23449;SDS011;11897;45.438;12.128;2023-04-29T06:19:47;6.20;;;4.57;;
23449;SDS011;11897;45.438;12.128;2023-04-29T06:22:14;9.17;;;5.13;;
23449;SDS011;11897;45.438;12.128;2023-04-29T06:24:48;6.50;;;4.00;;
23449;SDS011;11897;45.438;12.128;2023-04-29T06:27:24;10.23;;;5.00;;
23449;SDS011;11897;45.438;12.128;2023-04-29T06:29:53;8.87;;;4.67;;
23449;SDS011;11897;45.438;12.128;2023-04-29T06:32:21;9.43;;;4.43;;
23449;SDS011;11897;45.438;12.128;2023-04-29T06:34:49;11.00;;;5.73;;
23449;SDS011;11897;45.438;12.128;2023-04-29T06:37:29;9.17;;;5.27;;
23449;SDS011;11897;45.438;12.128;2023-04-29T06:40:14;8.27;;;4.80;;
23449;SDS011;11897;45.438;12.128;2023-04-29T06:43:05;6.67;;;4.57;;
23449;SDS011;11897;45.438;12.128;2023-04-29T06:45:58;7.13;;;4.40;;
23449;SDS011;11897;45.438;12.128;2023-04-29T06:48:33;9.90;;;4.83;;
23449;SDS011;11897;45.438;12.128;2023-04-29T06:51:03;6.77;;;4.10;;
23449;SDS011;11897;45.438;12.128;2023-04-29T06:53:34;6.40;;;4.13;;
23449;SDS011;11897;45.438;12.128;2023-04-29T06:56:01;6.43;;;4.07;;
23449;SDS011;11897;45.438;12.128;2023-04-29T06:58:28;6.53;;;4.57;;
23449;SDS011;11897;45.438;12.128;2023-04-29T07:00:55;8.57;;;4.47;;
23449;SDS011;11897;45.438;12.128;2023-04-29T07:03:21;8.47;;;4.70;;
23449;SDS011;11897;45.438;12.128;2023-04-29T07:05:50;7.43;;;4.03;;
23449;SDS011;11897;45.438;12.128;2023-04-29T07:08:17;6.97;;;4.40;;
23449;SDS011;11897;45.438;12.128;2023-04-29T07:10:52;7.60;;;4.27;;
23449;SDS011;11897;45.438;12.128;2023-04-29T07:13:22;7.60;;;3.80;;
23449;SDS011;11897;45.438;12.128;2023-04-29T07:15:49;12.10;;;4.37;;
23449;SDS011;11897;45.438;12.128;2023-04-29T07:18:16;7.20;;;3.93;;
23449;SDS011;11897;45.438;12.128;2023-04-29T07:20:43;10.83;;;4.13;;
23449;SDS011;11897;45.438;12.128;2023-04-29T07:23:11;6.57;;;4.37;;
23449;SDS011;11897;45.438;12.128;2023-04-29T07:25:41;6.13;;;4.37;;
23449;SDS011;11897;45.438;12.128;2023-04-29T07:28:08;9.43;;;4.80;;
23449;SDS011;11897;45.438;12.128;2023-04-29T07:30:34;7.30;;;4.17;;
23449;SDS011;11897;45.438;12.128;2023-04-29T07:33:02;8.63;;;4.57;;
23449;SDS011;11897;45.438;12.128;2023-04-29T07:35:29;9.50;;;3.93;;
23449;SDS011;11897;45.438;12.128;2023-04-29T07:37:56;10.10;;;4.77;;
23449;SDS011;11897;45.438;12.128;2023-04-29T07:40:25;4.33;;;3.20;;
23449;SDS011;11897;45.438;12.128;2023-04-29T07:43:02;7.03;;;3.70;;
23449;SDS011;11897;45.438;12.128;2023-04-29T07:45:31;6.73;;;4.27;;
23449;SDS011;11897;45.438;12.128;2023-04-29T07:47:59;7.07;;;4.47;;
23449;SDS011;11897;45.438;12.128;2023-04-29T07:50:29;7.03;;;4.50;;
23449;SDS011;11897;45.438;12.128;2023-04-29T07:52:55;10.00;;;4.43;;
23449;SDS011;11897;45.438;12.128;2023-04-29T07:55:26;8.10;;;3.80;;
23449;SDS011;11897;45.438;12.128;2023-04-29T07:57:54;7.87;;;4.83;;
23449;SDS011;11897;45.438;12.128;2023-04-29T08:00:22;6.57;;;4.03;;
23449;SDS011;11897;45.438;12.128;2023-04-29T08:02:49;7.50;;;3.93;;
23449;SDS011;11897;45.438;12.128;2023-04-29T08:05:18;10.10;;;4.00;;
23449;SDS011;11897;45.438;12.128;2023-04-29T08:07:47;5.83;;;3.90;;
23449;SDS011;11897;45.438;12.128;2023-04-29T08:10:13;5.07;;;3.27;;
23449;SDS011;11897;45.438;12.128;2023-04-29T08:12:42;5.97;;;3.57;;
23449;SDS011;11897;45.438;12.128;2023-04-29T08:15:10;6.40;;;4.07;;
23449;SDS011;11897;45.438;12.128;2023-04-29T08:17:37;6.33;;;3.97;;
23449;SDS011;11897;45.438;12.128;2023-04-29T08:20:04;4.53;;;3.67;;
23449;SDS011;11897;45.438;12.128;2023-04-29T08:22:32;12.57;;;4.00;;
23449;SDS011;11897;45.438;12.128;2023-04-29T08:24:58;9.10;;;3.60;;
23449;SDS011;11897;45.438;12.128;2023-04-29T08:27:27;5.73;;;3.00;;
23449;SDS011;11897;45.438;12.128;2023-04-29T08:29:55;3.90;;;2.63;;
23449;SDS011;11897;45.438;12.128;2023-04-29T08:32:22;5.63;;;2.80;;
23449;SDS011;11897;45.438;12.128;2023-04-29T08:34:49;5.57;;;3.00;;
23449;SDS011;11897;45.438;12.128;2023-04-29T08:37:16;4.70;;;3.20;;
23449;SDS011;11897;45.438;12.128;2023-04-29T08:39:43;7.33;;;3.70;;
23449;SDS011;11897;45.438;12.128;2023-04-29T08:42:11;6.70;;;4.10;;
23449;SDS011;11897;45.438;12.128;2023-04-29T08:44:38;4.17;;;2.90;;
23449;SDS011;11897;45.438;12.128;2023-04-29T08:47:06;5.20;;;2.93;;
23449;SDS011;11897;45.438;12.128;2023-04-29T08:49:34;4.53;;;3.47;;
23449;SDS011;11897;45.438;12.128;2023-04-29T08:52:02;6.63;;;3.77;;
23449;SDS011;11897;45.438;12.128;2023-04-29T08:54:30;8.77;;;3.83;;
23449;SDS011;11897;45.438;12.128;2023-04-29T08:57:00;4.70;;;3.30;;
23449;SDS011;11897;45.438;12.128;2023-04-29T08:59:27;8.00;;;4.03;;
23449;SDS011;11897;45.438;12.128;2023-04-29T09:01:54;6.27;;;3.23;;
23449;SDS011;11897;45.438;12.128;2023-04-29T09:04:26;5.33;;;3.43;;
23449;SDS011;11897;45.438;12.128;2023-04-29T09:06:55;6.80;;;3.23;;
23449;SDS011;11897;45.438;12.128;2023-04-29T09:09:23;3.97;;;2.73;;
23449;SDS011;11897;45.438;12.128;2023-04-29T09:11:51;6.20;;;3.73;;
23449;SDS011;11897;45.438;12.128;2023-04-29T09:14:21;4.43;;;3.17;;
23449;SDS011;11897;45.438;12.128;2023-04-29T09:16:48;6.80;;;3.27;;
23449;SDS011;11897;45.438;12.128;2023-04-29T09:19:29;8.27;;;3.77;;
23449;SDS011;11897;45.438;12.128;2023-04-29T09:21:57;11.10;;;4.43;;
23449;SDS011;11897;45.438;12.128;2023-04-29T09:24:24;7.63;;;3.93;;
23449;SDS011;11897;45.438;12.128;2023-04-29T09:26:53;6.77;;;3.53;;
23449;SDS011;11897;45.438;12.128;2023-04-29T09:29:20;8.63;;;3.17;;
23449;SDS011;11897;45.438;12.128;2023-04-29T09:31:48;6.97;;;3.00;;
23449;SDS011;11897;45.438;12.128;2023-04-29T09:34:15;3.87;;;3.10;;
23449;SDS011;11897;45.438;12.128;2023-04-29T09:36:44;6.33;;;3.27;;
23449;SDS011;11897;45.438;12.128;2023-04-29T09:39:12;6.23;;;3.10;;
23449;SDS011;11897;45.438;12.128;2023-04-29T09:41:56;7.57;;;2.80;;
23449;SDS011;11897;45.438;12.128;2023-04-29T09:44:30;5.53;;;2.63;;
23449;SDS011;11897;45.438;12.128;2023-04-29T09:47:00;5.50;;;3.30;;
23449;SDS011;11897;45.438;12.128;2023-04-29T09:49:30;3.83;;;2.43;;
23449;SDS011;11897;45.438;12.128;2023-04-29T09:52:00;6.00;;;3.03;;
23449;SDS011;11897;45.438;12.128;2023-04-29T09:54:29;5.43;;;2.50;;
23449;SDS011;11897;45.438;12.128;2023-04-29T09:56:56;7.40;;;2.63;;
23449;SDS011;11897;45.438;12.128;2023-04-29T09:59:23;5.17;;;2.27;;
23449;SDS011;11897;45.438;12.128;2023-04-29T10:01:53;3.13;;;2.50;;
23449;SDS011;11897;45.438;12.128;2023-04-29T10:04:21;10.93;;;2.40;;
23449;SDS011;11897;45.438;12.128;2023-04-29T10:06:48;8.77;;;2.23;;
23449;SDS011;11897;45.438;12.128;2023-04-29T10:09:18;5.83;;;1.90;;
23449;SDS011;11897;45.438;12.128;2023-04-29T10:11:45;3.33;;;2.03;;
23449;SDS011;11897;45.438;12.128;2023-04-29T10:14:14;2.87;;;1.60;;
23449;SDS011;11897;45.438;12.128;2023-04-29T10:16:47;4.43;;;2.20;;
23449;SDS011;11897;45.438;12.128;2023-04-29T10:19:18;3.17;;;1.93;;
23449;SDS011;11897;45.438;12.128;2023-04-29T10:21:45;4.33;;;2.10;;
23449;SDS011;11897;45.438;12.128;2023-04-29T10:24:17;3.33;;;2.40;;
23449;SDS011;11897;45.438;12.128;2023-04-29T10:26:46;6.57;;;2.00;;
23449;SDS011;11897;45.438;12.128;2023-04-29T10:29:15;3.43;;;1.90;;
23449;SDS011;11897;45.438;12.128;2023-04-29T10:31:42;3.60;;;2.20;;
23449;SDS011;11897;45.438;12.128;2023-04-29T10:34:10;5.27;;;2.23;;
23449;SDS011;11897;45.438;12.128;2023-04-29T10:36:38;4.20;;;2.30;;
23449;SDS011;11897;45.438;12.128;2023-04-29T10:39:05;7.10;;;2.33;;
23449;SDS011;11897;45.438;12.128;2023-04-29T10:41:41;4.37;;;2.43;;
23449;SDS011;11897;45.438;12.128;2023-04-29T10:44:10;5.27;;;2.50;;
23449;SDS011;11897;45.438;12.128;2023-04-29T10:46:36;2.73;;;2.03;;
23449;SDS011;11897;45.438;12.128;2023-04-29T10:49:03;2.80;;;2.17;;
23449;SDS011;11897;45.438;12.128;2023-04-29T10:51:31;3.83;;;2.27;;
23449;SDS011;11897;45.438;12.128;2023-04-29T10:53:58;4.67;;;2.40;;
23449;SDS011;11897;45.438;12.128;2023-04-29T10:56:36;5.10;;;2.47;;
23449;SDS011;11897;45.438;12.128;2023-04-29T10:59:03;5.90;;;2.50;;
23449;SDS011;11897;45.438;12.128;2023-04-29T11:01:40;5.77;;;2.30;;
23449;SDS011;11897;45.438;12.128;2023-04-29T11:04:07;6.50;;;2.77;;
23449;SDS011;11897;45.438;12.128;2023-04-29T11:06:50;3.63;;;2.17;;
23449;SDS011;11897;45.438;12.128;2023-04-29T11:09:20;3.80;;;2.13;;
23449;SDS011;11897;45.438;12.128;2023-04-29T11:11:55;3.50;;;2.23;;
23449;SDS011;11897;45.438;12.128;2023-04-29T11:14:23;4.80;;;2.30;;
23449;SDS011;11897;45.438;12.128;2023-04-29T11:16:51;4.90;;;2.30;;
23449;SDS011;11897;45.438;12.128;2023-04-29T11:19:22;10.67;;;3.13;;
23449;SDS011;11897;45.438;12.128;2023-04-29T11:21:51;4.77;;;2.47;;
23449;SDS011;11897;45.438;12.128;2023-04-29T11:24:28;5.47;;;2.77;;
23449;SDS011;11897;45.438;12.128;2023-04-29T11:26:59;4.40;;;2.50;;
23449;SDS011;11897;45.438;12.128;2023-04-29T11:29:29;6.67;;;2.57;;
23449;SDS011;11897;45.438;12.128;2023-04-29T11:31:57;4.17;;;2.93;;
23449;SDS011;11897;45.438;12.128;2023-04-29T11:34:24;4.00;;;2.50;;
23449;SDS011;11897;45.438;12.128;2023-04-29T11:36:51;5.80;;;2.40;;
23449;SDS011;11897;45.438;12.128;2023-04-29T11:39:20;8.23;;;3.00;;
23449;SDS011;11897;45.438;12.128;2023-04-29T11:41:48;6.97;;;2.67;;
23449;SDS011;11897;45.438;12.128;2023-04-29T11:44:16;4.10;;;2.53;;
23449;SDS011;11897;45.438;12.128;2023-04-29T11:46:46;6.27;;;3.20;;
23449;SDS011;11897;45.438;12.128;2023-04-29T11:49:14;3.13;;;2.03;;
23449;SDS011;11897;45.438;12.128;2023-04-29T11:51:45;4.53;;;2.90;;
23449;SDS011;11897;45.438;12.128;2023-04-29T11:54:12;4.30;;;2.30;;
23449;SDS011;11897;45.438;12.128;2023-04-29T11:56:39;2.63;;;2.30;;
23449;SDS011;11897;45.438;12.128;2023-04-29T11:59:07;5.23;;;2.17;;
23449;SDS011;11897;45.438;12.128;2023-04-29T12:01:36;6.27;;;3.90;;
23449;SDS011;11897;45.438;12.128;2023-04-29T12:04:04;3.47;;;2.57;;
23449;SDS011;11897;45.438;12.128;2023-04-29T12:06:38;4.93;;;2.37;;
23449;SDS011;11897;45.438;12.128;2023-04-29T12:09:05;3.50;;;2.23;;
23449;SDS011;11897;45.438;12.128;2023-04-29T12:11:32;4.53;;;2.40;;
23449;SDS011;11897;45.438;12.128;2023-04-29T12:14:00;4.57;;;2.23;;
23449;SDS011;11897;45.438;12.128;2023-04-29T12:16:30;3.27;;;2.30;;
23449;SDS011;11897;45.438;12.128;2023-04-29T12:19:00;5.57;;;3.03;;
23449;SDS011;11897;45.438;12.128;2023-04-29T12:21:27;10.97;;;2.40;;
23449;SDS011;11897;45.438;12.128;2023-04-29T12:23:57;4.57;;;2.33;;
23449;SDS011;11897;45.438;12.128;2023-04-29T12:26:26;4.23;;;2.50;;
23449;SDS011;11897;45.438;12.128;2023-04-29T12:28:55;6.40;;;3.23;;
23449;SDS011;11897;45.438;12.128;2023-04-29T12:31:22;3.93;;;2.43;;
23449;SDS011;11897;45.438;12.128;2023-04-29T12:33:52;5.27;;;2.63;;
23449;SDS011;11897;45.438;12.128;2023-04-29T12:36:22;5.03;;;2.10;;
23449;SDS011;11897;45.438;12.128;2023-04-29T12:38:49;8.93;;;2.70;;
23449;SDS011;11897;45.438;12.128;2023-04-29T12:41:35;3.97;;;2.57;;
23449;SDS011;11897;45.438;12.128;2023-04-29T12:44:02;5.03;;;2.57;;
23449;SDS011;11897;45.438;12.128;2023-04-29T12:46:33;7.90;;;3.10;;
23449;SDS011;11897;45.438;12.128;2023-04-29T12:49:00;2.73;;;2.10;;
23449;SDS011;11897;45.438;12.128;2023-04-29T12:51:29;3.00;;;1.90;;
23449;SDS011;11897;45.438;12.128;2023-04-29T12:53:59;5.00;;;2.80;;
23449;SDS011;11897;45.438;12.128;2023-04-29T12:56:27;3.70;;;2.13;;
23449;SDS011;11897;45.438;12.128;2023-04-29T12:58:54;4.93;;;2.27;;
23449;SDS011;11897;45.438;12.128;2023-04-29T13:01:21;9.97;;;2.47;;
23449;SDS011;11897;45.438;12.128;2023-04-29T13:03:48;2.83;;;2.03;;
23449;SDS011;11897;45.438;12.128;2023-04-29T13:06:15;4.73;;;2.00;;
23449;SDS011;11897;45.438;12.128;2023-04-29T13:08:43;2.93;;;2.20;;
23449;SDS011;11897;45.438;12.128;2023-04-29T13:11:10;4.70;;;2.20;;
23449;SDS011;11897;45.438;12.128;2023-04-29T13:13:37;5.93;;;1.93;;
23449;SDS011;11897;45.438;12.128;2023-04-29T13:16:04;3.80;;;2.00;;
23449;SDS011;11897;45.438;12.128;2023-04-29T13:18:32;6.88;;;2.13;;
23449;SDS011;11897;45.438;12.128;2023-04-29T13:21:01;3.25;;;2.22;;
23449;SDS011;11897;45.438;12.128;2023-04-29T13:23:31;6.07;;;2.60;;
23449;SDS011;11897;45.438;12.128;2023-04-29T13:26:00;4.03;;;2.35;;
23449;SDS011;11897;45.438;12.128;2023-04-29T13:28:26;3.27;;;2.20;;
23449;SDS011;11897;45.438;12.128;2023-04-29T13:30:53;3.90;;;2.15;;
23449;SDS011;11897;45.438;12.128;2023-04-29T13:33:20;5.35;;;2.03;;
23449;SDS011;11897;45.438;12.128;2023-04-29T13:35:47;2.90;;;1.57;;
23449;SDS011;11897;45.438;12.128;2023-04-29T13:38:18;3.92;;;1.80;;
23449;SDS011;11897;45.438;12.128;2023-04-29T13:40:46;3.33;;;2.20;;
23449;SDS011;11897;45.438;12.128;2023-04-29T13:43:15;5.37;;;2.33;;
23449;SDS011;11897;45.438;12.128;2023-04-29T13:45:42;4.73;;;2.03;;
23449;SDS011;11897;45.438;12.128;2023-04-29T13:48:08;4.83;;;2.07;;
23449;SDS011;11897;45.438;12.128;2023-04-29T13:50:36;2.87;;;2.20;;
23449;SDS011;11897;45.438;12.128;2023-04-29T13:53:05;5.17;;;2.27;;
23449;SDS011;11897;45.438;12.128;2023-04-29T13:55:32;2.50;;;1.97;;
23449;SDS011;11897;45.438;12.128;2023-04-29T13:58:01;2.07;;;1.87;;
23449;SDS011;11897;45.438;12.128;2023-04-29T14:00:30;3.93;;;2.23;;
23449;SDS011;11897;45.438;12.128;2023-04-29T14:02:56;2.93;;;2.30;;
23449;SDS011;11897;45.438;12.128;2023-04-29T14:05:23;1.77;;;1.60;;
23449;SDS011;11897;45.438;12.128;2023-04-29T14:07:50;3.33;;;2.03;;
23449;SDS011;11897;45.438;12.128;2023-04-29T14:10:17;7.20;;;2.10;;
23449;SDS011;11897;45.438;12.128;2023-04-29T14:12:44;3.60;;;1.90;;
23449;SDS011;11897;45.438;12.128;2023-04-29T14:15:11;2.43;;;1.67;;
23449;SDS011;11897;45.438;12.128;2023-04-29T14:17:40;3.70;;;1.50;;
23449;SDS011;11897;45.438;12.128;2023-04-29T14:20:07;3.93;;;1.80;;
23449;SDS011;11897;45.438;12.128;2023-04-29T14:22:35;3.57;;;1.93;;
23449;SDS011;11897;45.438;12.128;2023-04-29T14:25:04;3.13;;;1.60;;
23449;SDS011;11897;45.438;12.128;2023-04-29T14:27:31;2.93;;;1.60;;
23449;SDS011;11897;45.438;12.128;2023-04-29T14:29:58;2.50;;;1.93;;
23449;SDS011;11897;45.438;12.128;2023-04-29T14:32:25;2.60;;;1.80;;
23449;SDS011;11897;45.438;12.128;2023-04-29T14:34:53;3.27;;;1.93;;
23449;SDS011;11897;45.438;12.128;2023-04-29T14:37:20;2.93;;;1.80;;
23449;SDS011;11897;45.438;12.128;2023-04-29T14:39:48;1.57;;;1.40;;
23449;SDS011;11897;45.438;12.128;2023-04-29T14:42:16;2.10;;;1.87;;
23449;SDS011;11897;45.438;12.128;2023-04-29T14:44:45;1.87;;;1.33;;